sensor_id;sensor_type;location;lat;lon;timestamp;temperature;humidity
60309;DHT22;50313;52.894;6.492;2024-02-21T00:01:08;9.60;99.90
60309;DHT22;50313;52.894;6.492;2024-02-21T00:03:33;9.60;99.90
60309;DHT22;50313;52.894;6.492;2024-02-21T00:05:59;9.60;99.90
60309;DHT22;50313;52.894;6.492;2024-02-21T00:08:25;9.60;99.90
60309;DHT22;50313;52.894;6.492;2024-02-21T00:10:50;9.60;99.90
60309;DHT22;50313;52.894;6.492;2024-02-21T00:13:17;9.50;99.90
60309;DHT22;50313;52.894;6.492;2024-02-21T00:15:42;9.50;99.90
60309;DHT22;50313;52.894;6.492;2024-02-21T00:18:08;9.60;99.90
60309;DHT22;50313;52.894;6.492;2024-02-21T00:20:36;9.50;99.90
60309;DHT22;50313;52.894;6.492;2024-02-21T00:23:02;9.60;99.90
60309;DHT22;50313;52.894;6.492;2024-02-21T00:25:28;9.50;99.90
60309;DHT22;50313;52.894;6.492;2024-02-21T00:27:53;9.60;99.90
60309;DHT22;50313;52.894;6.492;2024-02-21T00:30:19;9.50;99.90
60309;DHT22;50313;52.894;6.492;2024-02-21T00:32:45;9.60;99.90
60309;DHT22;50313;52.894;6.492;2024-02-21T00:35:10;9.50;99.90
60309;DHT22;50313;52.894;6.492;2024-02-21T00:37:36;9.50;99.90
60309;DHT22;50313;52.894;6.492;2024-02-21T00:40:02;9.50;99.90
60309;DHT22;50313;52.894;6.492;2024-02-21T00:42:28;9.50;99.90
60309;DHT22;50313;52.894;6.492;2024-02-21T00:44:53;9.50;99.90
60309;DHT22;50313;52.894;6.492;2024-02-21T00:47:19;9.50;99.90
60309;DHT22;50313;52.894;6.492;2024-02-21T00:49:45;9.50;99.90
60309;DHT22;50313;52.894;6.492;2024-02-21T00:52:10;9.50;99.90
60309;DHT22;50313;52.894;6.492;2024-02-21T00:54:36;9.50;99.90
60309;DHT22;50313;52.894;6.492;2024-02-21T00:57:02;9.40;99.90
60309;DHT22;50313;52.894;6.492;2024-02-21T00:59:28;9.40;99.90
60309;DHT22;50313;52.894;6.492;2024-02-21T01:01:53;9.40;99.90
60309;DHT22;50313;52.894;6.492;2024-02-21T01:04:19;9.30;99.90
60309;DHT22;50313;52.894;6.492;2024-02-21T01:06:45;9.20;99.90
60309;DHT22;50313;52.894;6.492;2024-02-21T01:09:11;9.20;99.90
60309;DHT22;50313;52.894;6.492;2024-02-21T01:11:37;9.20;99.90
60309;DHT22;50313;52.894;6.492;2024-02-21T01:14:02;9.20;99.90
60309;DHT22;50313;52.894;6.492;2024-02-21T01:16:28;9.10;99.90
60309;DHT22;50313;52.894;6.492;2024-02-21T01:18:54;9.10;99.90
60309;DHT22;50313;52.894;6.492;2024-02-21T01:21:20;9.00;99.90
60309;DHT22;50313;52.894;6.492;2024-02-21T01:23:45;9.10;99.90
60309;DHT22;50313;52.894;6.492;2024-02-21T01:26:11;9.10;99.90
60309;DHT22;50313;52.894;6.492;2024-02-21T01:28:39;9.00;99.90
60309;DHT22;50313;52.894;6.492;2024-02-21T01:31:05;9.00;99.90
60309;DHT22;50313;52.894;6.492;2024-02-21T01:33:31;9.00;99.90
60309;DHT22;50313;52.894;6.492;2024-02-21T01:36:06;9.00;99.90
60309;DHT22;50313;52.894;6.492;2024-02-21T01:38:32;9.00;99.90
60309;DHT22;50313;52.894;6.492;2024-02-21T01:40:58;9.00;99.90
60309;DHT22;50313;52.894;6.492;2024-02-21T01:43:24;9.00;99.90
60309;DHT22;50313;52.894;6.492;2024-02-21T01:45:54;8.90;99.90
60309;DHT22;50313;52.894;6.492;2024-02-21T01:48:22;9.00;99.90
60309;DHT22;50313;52.894;6.492;2024-02-21T01:50:55;9.00;99.90
60309;DHT22;50313;52.894;6.492;2024-02-21T01:53:34;9.00;99.90
60309;DHT22;50313;52.894;6.492;2024-02-21T01:56:01;8.90;99.90
60309;DHT22;50313;52.894;6.492;2024-02-21T01:58:28;8.90;99.90
60309;DHT22;50313;52.894;6.492;2024-02-21T02:00:56;8.90;99.90
60309;DHT22;50313;52.894;6.492;2024-02-21T02:03:22;8.90;99.90
60309;DHT22;50313;52.894;6.492;2024-02-21T02:05:49;8.80;99.90
60309;DHT22;50313;52.894;6.492;2024-02-21T02:08:17;8.80;99.90
60309;DHT22;50313;52.894;6.492;2024-02-21T02:10:43;8.80;99.90
60309;DHT22;50313;52.894;6.492;2024-02-21T02:13:09;8.80;99.90
60309;DHT22;50313;52.894;6.492;2024-02-21T02:15:42;8.70;99.90
60309;DHT22;50313;52.894;6.492;2024-02-21T02:18:33;8.70;99.90
60309;DHT22;50313;52.894;6.492;2024-02-21T02:20:59;8.70;99.90
60309;DHT22;50313;52.894;6.492;2024-02-21T02:25:51;8.70;99.90
60309;DHT22;50313;52.894;6.492;2024-02-21T02:28:20;8.70;99.90
60309;DHT22;50313;52.894;6.492;2024-02-21T02:30:46;8.60;99.90
60309;DHT22;50313;52.894;6.492;2024-02-21T02:33:12;8.60;99.90
60309;DHT22;50313;52.894;6.492;2024-02-21T02:35:38;8.60;99.90
60309;DHT22;50313;52.894;6.492;2024-02-21T02:38:04;8.60;99.90
60309;DHT22;50313;52.894;6.492;2024-02-21T02:40:34;8.60;99.90
60309;DHT22;50313;52.894;6.492;2024-02-21T02:43:00;8.60;99.90
60309;DHT22;50313;52.894;6.492;2024-02-21T02:45:26;8.60;99.90
60309;DHT22;50313;52.894;6.492;2024-02-21T02:47:53;8.60;99.90
60309;DHT22;50313;52.894;6.492;2024-02-21T02:50:23;8.70;99.90
60309;DHT22;50313;52.894;6.492;2024-02-21T02:52:49;8.60;99.90
60309;DHT22;50313;52.894;6.492;2024-02-21T02:55:15;8.60;99.90
60309;DHT22;50313;52.894;6.492;2024-02-21T02:57:40;8.60;99.90
60309;DHT22;50313;52.894;6.492;2024-02-21T03:00:14;8.60;99.90
60309;DHT22;50313;52.894;6.492;2024-02-21T03:02:42;8.60;99.90
60309;DHT22;50313;52.894;6.492;2024-02-21T03:05:19;8.60;99.90
60309;DHT22;50313;52.894;6.492;2024-02-21T03:07:45;8.60;99.90
60309;DHT22;50313;52.894;6.492;2024-02-21T03:10:11;8.60;99.90
60309;DHT22;50313;52.894;6.492;2024-02-21T03:12:37;8.60;99.90
60309;DHT22;50313;52.894;6.492;2024-02-21T03:15:04;8.70;99.90
60309;DHT22;50313;52.894;6.492;2024-02-21T03:17:30;8.60;99.90
60309;DHT22;50313;52.894;6.492;2024-02-21T03:19:57;8.60;99.90
60309;DHT22;50313;52.894;6.492;2024-02-21T03:22:23;8.60;99.90
60309;DHT22;50313;52.894;6.492;2024-02-21T03:24:49;8.70;99.90
60309;DHT22;50313;52.894;6.492;2024-02-21T03:27:14;8.70;99.90
60309;DHT22;50313;52.894;6.492;2024-02-21T03:29:40;8.60;99.90
60309;DHT22;50313;52.894;6.492;2024-02-21T03:32:06;8.60;99.90
60309;DHT22;50313;52.894;6.492;2024-02-21T03:34:32;8.60;99.90
60309;DHT22;50313;52.894;6.492;2024-02-21T03:36:57;8.70;99.90
60309;DHT22;50313;52.894;6.492;2024-02-21T03:39:24;8.70;99.90
60309;DHT22;50313;52.894;6.492;2024-02-21T03:41:50;8.60;99.90
60309;DHT22;50313;52.894;6.492;2024-02-21T03:44:16;8.60;99.90
60309;DHT22;50313;52.894;6.492;2024-02-21T03:46:42;8.60;99.90
60309;DHT22;50313;52.894;6.492;2024-02-21T03:49:08;8.60;99.90
60309;DHT22;50313;52.894;6.492;2024-02-21T03:51:33;8.60;99.90
60309;DHT22;50313;52.894;6.492;2024-02-21T03:53:59;8.60;99.90
60309;DHT22;50313;52.894;6.492;2024-02-21T03:56:25;8.60;99.90
60309;DHT22;50313;52.894;6.492;2024-02-21T03:58:50;8.60;99.90
60309;DHT22;50313;52.894;6.492;2024-02-21T04:01:16;8.60;99.90
60309;DHT22;50313;52.894;6.492;2024-02-21T04:03:43;8.60;99.90
60309;DHT22;50313;52.894;6.492;2024-02-21T04:06:09;8.60;99.90
60309;DHT22;50313;52.894;6.492;2024-02-21T04:08:35;8.60;99.90
60309;DHT22;50313;52.894;6.492;2024-02-21T04:11:01;8.60;99.90
60309;DHT22;50313;52.894;6.492;2024-02-21T04:13:27;8.60;99.90
60309;DHT22;50313;52.894;6.492;2024-02-21T04:15:53;8.70;99.90
60309;DHT22;50313;52.894;6.492;2024-02-21T04:18:18;8.60;99.90
60309;DHT22;50313;52.894;6.492;2024-02-21T04:20:44;8.60;99.90
60309;DHT22;50313;52.894;6.492;2024-02-21T04:23:10;8.60;99.90
60309;DHT22;50313;52.894;6.492;2024-02-21T04:25:36;8.60;99.90
60309;DHT22;50313;52.894;6.492;2024-02-21T04:28:02;8.60;99.90
60309;DHT22;50313;52.894;6.492;2024-02-21T04:30:28;8.60;99.90
60309;DHT22;50313;52.894;6.492;2024-02-21T04:32:54;8.60;99.90
60309;DHT22;50313;52.894;6.492;2024-02-21T04:35:20;8.60;99.90
60309;DHT22;50313;52.894;6.492;2024-02-21T04:37:46;8.60;99.90
60309;DHT22;50313;52.894;6.492;2024-02-21T04:40:11;8.60;99.90
60309;DHT22;50313;52.894;6.492;2024-02-21T04:42:38;8.60;99.90
60309;DHT22;50313;52.894;6.492;2024-02-21T04:45:05;8.60;99.90
60309;DHT22;50313;52.894;6.492;2024-02-21T04:47:31;8.60;99.90
60309;DHT22;50313;52.894;6.492;2024-02-21T04:49:56;8.60;99.90
60309;DHT22;50313;52.894;6.492;2024-02-21T04:52:22;8.60;99.90
60309;DHT22;50313;52.894;6.492;2024-02-21T04:54:48;8.60;99.90
60309;DHT22;50313;52.894;6.492;2024-02-21T04:57:14;8.60;99.90
60309;DHT22;50313;52.894;6.492;2024-02-21T04:59:44;8.60;99.90
60309;DHT22;50313;52.894;6.492;2024-02-21T05:02:10;8.60;99.90
60309;DHT22;50313;52.894;6.492;2024-02-21T05:04:36;8.60;99.90
60309;DHT22;50313;52.894;6.492;2024-02-21T05:07:04;8.60;99.90
60309;DHT22;50313;52.894;6.492;2024-02-21T05:09:30;8.60;99.90
60309;DHT22;50313;52.894;6.492;2024-02-21T05:11:55;8.60;99.90
60309;DHT22;50313;52.894;6.492;2024-02-21T05:14:21;8.70;99.90
60309;DHT22;50313;52.894;6.492;2024-02-21T05:16:47;8.70;99.90
60309;DHT22;50313;52.894;6.492;2024-02-21T05:19:12;8.70;99.90
60309;DHT22;50313;52.894;6.492;2024-02-21T05:21:38;8.70;99.90
60309;DHT22;50313;52.894;6.492;2024-02-21T05:24:04;8.70;99.90
60309;DHT22;50313;52.894;6.492;2024-02-21T05:26:30;8.70;99.90
60309;DHT22;50313;52.894;6.492;2024-02-21T05:28:56;8.70;99.90
60309;DHT22;50313;52.894;6.492;2024-02-21T05:31:21;8.70;99.90
60309;DHT22;50313;52.894;6.492;2024-02-21T05:33:47;8.70;99.90
60309;DHT22;50313;52.894;6.492;2024-02-21T05:36:13;8.70;99.90
60309;DHT22;50313;52.894;6.492;2024-02-21T05:38:39;8.70;99.90
60309;DHT22;50313;52.894;6.492;2024-02-21T05:41:05;8.70;99.90
60309;DHT22;50313;52.894;6.492;2024-02-21T05:43:31;8.70;99.90
60309;DHT22;50313;52.894;6.492;2024-02-21T05:45:57;8.70;99.90
60309;DHT22;50313;52.894;6.492;2024-02-21T05:48:23;8.70;99.90
60309;DHT22;50313;52.894;6.492;2024-02-21T05:50:49;8.70;99.90
60309;DHT22;50313;52.894;6.492;2024-02-21T05:53:15;8.70;99.90
60309;DHT22;50313;52.894;6.492;2024-02-21T05:55:41;8.70;99.90
60309;DHT22;50313;52.894;6.492;2024-02-21T05:58:07;8.70;99.90
60309;DHT22;50313;52.894;6.492;2024-02-21T06:00:33;8.70;99.90
60309;DHT22;50313;52.894;6.492;2024-02-21T06:02:59;8.70;99.90
60309;DHT22;50313;52.894;6.492;2024-02-21T06:05:25;8.70;99.90
60309;DHT22;50313;52.894;6.492;2024-02-21T06:07:50;8.70;99.90
60309;DHT22;50313;52.894;6.492;2024-02-21T06:10:16;8.70;99.90
60309;DHT22;50313;52.894;6.492;2024-02-21T06:12:42;8.70;99.90
60309;DHT22;50313;52.894;6.492;2024-02-21T06:15:08;8.70;99.90
60309;DHT22;50313;52.894;6.492;2024-02-21T06:17:34;8.70;99.90
60309;DHT22;50313;52.894;6.492;2024-02-21T06:20:00;8.70;99.90
60309;DHT22;50313;52.894;6.492;2024-02-21T06:22:26;8.70;99.90
60309;DHT22;50313;52.894;6.492;2024-02-21T06:24:51;8.70;99.90
60309;DHT22;50313;52.894;6.492;2024-02-21T06:27:19;8.70;99.90
60309;DHT22;50313;52.894;6.492;2024-02-21T06:29:45;8.70;99.90
60309;DHT22;50313;52.894;6.492;2024-02-21T06:32:11;8.70;99.90
60309;DHT22;50313;52.894;6.492;2024-02-21T06:34:37;8.70;99.90
60309;DHT22;50313;52.894;6.492;2024-02-21T06:37:02;8.70;99.90
60309;DHT22;50313;52.894;6.492;2024-02-21T06:39:29;8.70;99.90
60309;DHT22;50313;52.894;6.492;2024-02-21T06:41:55;8.70;99.90
60309;DHT22;50313;52.894;6.492;2024-02-21T06:44:21;8.70;99.90
60309;DHT22;50313;52.894;6.492;2024-02-21T06:46:47;8.70;99.90
60309;DHT22;50313;52.894;6.492;2024-02-21T06:49:13;8.60;99.90
60309;DHT22;50313;52.894;6.492;2024-02-21T06:51:43;8.60;99.90
60309;DHT22;50313;52.894;6.492;2024-02-21T06:54:09;8.70;99.90
60309;DHT22;50313;52.894;6.492;2024-02-21T06:56:36;8.70;99.90
60309;DHT22;50313;52.894;6.492;2024-02-21T06:59:02;8.70;99.90
60309;DHT22;50313;52.894;6.492;2024-02-21T07:01:31;8.70;99.90
60309;DHT22;50313;52.894;6.492;2024-02-21T07:03:57;8.70;99.90
60309;DHT22;50313;52.894;6.492;2024-02-21T07:06:23;8.70;99.90
60309;DHT22;50313;52.894;6.492;2024-02-21T07:08:49;8.70;99.90
60309;DHT22;50313;52.894;6.492;2024-02-21T07:11:15;8.70;99.90
60309;DHT22;50313;52.894;6.492;2024-02-21T07:13:40;8.70;99.90
60309;DHT22;50313;52.894;6.492;2024-02-21T07:16:07;8.70;99.90
60309;DHT22;50313;52.894;6.492;2024-02-21T07:18:33;8.70;99.90
60309;DHT22;50313;52.894;6.492;2024-02-21T07:20:59;8.70;99.90
60309;DHT22;50313;52.894;6.492;2024-02-21T07:23:25;8.70;99.90
60309;DHT22;50313;52.894;6.492;2024-02-21T07:25:50;8.70;99.90
60309;DHT22;50313;52.894;6.492;2024-02-21T07:28:16;8.70;99.90
60309;DHT22;50313;52.894;6.492;2024-02-21T07:30:43;8.70;99.90
60309;DHT22;50313;52.894;6.492;2024-02-21T07:33:09;8.70;99.90
60309;DHT22;50313;52.894;6.492;2024-02-21T07:35:35;8.70;99.90
60309;DHT22;50313;52.894;6.492;2024-02-21T07:38:04;8.70;99.90
60309;DHT22;50313;52.894;6.492;2024-02-21T07:40:30;8.70;99.90
60309;DHT22;50313;52.894;6.492;2024-02-21T07:42:56;8.70;99.90
60309;DHT22;50313;52.894;6.492;2024-02-21T07:45:22;8.70;99.90
60309;DHT22;50313;52.894;6.492;2024-02-21T07:47:50;8.70;99.90
60309;DHT22;50313;52.894;6.492;2024-02-21T07:50:16;8.70;99.90
60309;DHT22;50313;52.894;6.492;2024-02-21T07:52:42;8.70;99.90
60309;DHT22;50313;52.894;6.492;2024-02-21T07:55:08;8.70;99.90
60309;DHT22;50313;52.894;6.492;2024-02-21T07:57:36;8.70;99.90
60309;DHT22;50313;52.894;6.492;2024-02-21T08:00:02;8.70;99.90
60309;DHT22;50313;52.894;6.492;2024-02-21T08:02:29;8.70;99.90
60309;DHT22;50313;52.894;6.492;2024-02-21T08:04:55;8.70;99.90
60309;DHT22;50313;52.894;6.492;2024-02-21T08:07:21;8.70;99.90
60309;DHT22;50313;52.894;6.492;2024-02-21T08:09:46;8.70;99.90
60309;DHT22;50313;52.894;6.492;2024-02-21T08:12:12;8.70;99.90
60309;DHT22;50313;52.894;6.492;2024-02-21T08:14:38;8.70;99.90
60309;DHT22;50313;52.894;6.492;2024-02-21T08:17:04;8.80;99.90
60309;DHT22;50313;52.894;6.492;2024-02-21T08:19:30;8.80;99.90
60309;DHT22;50313;52.894;6.492;2024-02-21T08:21:56;8.70;99.90
60309;DHT22;50313;52.894;6.492;2024-02-21T08:24:21;8.80;99.90
60309;DHT22;50313;52.894;6.492;2024-02-21T08:26:48;8.80;99.90
60309;DHT22;50313;52.894;6.492;2024-02-21T08:29:14;8.80;99.90
60309;DHT22;50313;52.894;6.492;2024-02-21T08:31:39;8.80;99.90
60309;DHT22;50313;52.894;6.492;2024-02-21T08:34:05;8.80;99.90
60309;DHT22;50313;52.894;6.492;2024-02-21T08:36:35;8.80;99.90
60309;DHT22;50313;52.894;6.492;2024-02-21T08:39:02;8.90;99.90
60309;DHT22;50313;52.894;6.492;2024-02-21T08:41:31;8.90;99.90
60309;DHT22;50313;52.894;6.492;2024-02-21T08:43:57;8.80;99.90
60309;DHT22;50313;52.894;6.492;2024-02-21T08:46:24;8.80;99.90
60309;DHT22;50313;52.894;6.492;2024-02-21T08:48:50;8.80;99.90
60309;DHT22;50313;52.894;6.492;2024-02-21T08:51:17;8.70;99.90
60309;DHT22;50313;52.894;6.492;2024-02-21T08:53:44;8.80;99.90
60309;DHT22;50313;52.894;6.492;2024-02-21T08:56:10;8.80;99.90
60309;DHT22;50313;52.894;6.492;2024-02-21T08:58:39;8.80;99.90
60309;DHT22;50313;52.894;6.492;2024-02-21T09:01:06;8.80;99.90
60309;DHT22;50313;52.894;6.492;2024-02-21T09:03:39;8.80;99.90
60309;DHT22;50313;52.894;6.492;2024-02-21T09:06:07;8.80;99.90
60309;DHT22;50313;52.894;6.492;2024-02-21T09:08:33;8.80;99.90
60309;DHT22;50313;52.894;6.492;2024-02-21T09:11:00;8.80;99.90
60309;DHT22;50313;52.894;6.492;2024-02-21T09:13:26;8.80;99.90
60309;DHT22;50313;52.894;6.492;2024-02-21T09:15:52;8.80;99.90
60309;DHT22;50313;52.894;6.492;2024-02-21T09:18:18;8.80;99.90
60309;DHT22;50313;52.894;6.492;2024-02-21T09:20:44;8.80;99.90
60309;DHT22;50313;52.894;6.492;2024-02-21T09:23:10;8.80;99.90
60309;DHT22;50313;52.894;6.492;2024-02-21T09:25:36;8.90;99.90
60309;DHT22;50313;52.894;6.492;2024-02-21T09:28:02;8.90;99.90
60309;DHT22;50313;52.894;6.492;2024-02-21T09:30:28;8.80;99.90
60309;DHT22;50313;52.894;6.492;2024-02-21T09:32:54;8.90;99.90
60309;DHT22;50313;52.894;6.492;2024-02-21T09:35:20;8.90;99.90
60309;DHT22;50313;52.894;6.492;2024-02-21T09:37:48;8.90;99.90
60309;DHT22;50313;52.894;6.492;2024-02-21T09:40:18;9.00;99.90
60309;DHT22;50313;52.894;6.492;2024-02-21T09:42:44;9.00;99.90
60309;DHT22;50313;52.894;6.492;2024-02-21T09:45:21;9.00;99.90
60309;DHT22;50313;52.894;6.492;2024-02-21T09:50:36;9.10;99.90
60309;DHT22;50313;52.894;6.492;2024-02-21T09:53:05;9.10;99.90
60309;DHT22;50313;52.894;6.492;2024-02-21T09:55:33;9.20;99.90
60309;DHT22;50313;52.894;6.492;2024-02-21T09:58:01;9.20;99.90
60309;DHT22;50313;52.894;6.492;2024-02-21T10:00:27;9.30;99.90
60309;DHT22;50313;52.894;6.492;2024-02-21T10:02:54;9.40;99.90
60309;DHT22;50313;52.894;6.492;2024-02-21T10:05:19;9.40;99.90
60309;DHT22;50313;52.894;6.492;2024-02-21T10:07:45;9.40;99.90
60309;DHT22;50313;52.894;6.492;2024-02-21T10:10:12;9.50;99.90
60309;DHT22;50313;52.894;6.492;2024-02-21T10:12:51;9.50;99.90
60309;DHT22;50313;52.894;6.492;2024-02-21T10:15:24;9.50;99.90
60309;DHT22;50313;52.894;6.492;2024-02-21T10:17:58;9.50;99.90
60309;DHT22;50313;52.894;6.492;2024-02-21T10:20:24;9.50;99.90
60309;DHT22;50313;52.894;6.492;2024-02-21T10:23:04;9.50;99.90
60309;DHT22;50313;52.894;6.492;2024-02-21T10:25:33;9.50;99.90
60309;DHT22;50313;52.894;6.492;2024-02-21T10:27:59;9.50;99.90
60309;DHT22;50313;52.894;6.492;2024-02-21T10:30:25;9.50;99.90
60309;DHT22;50313;52.894;6.492;2024-02-21T10:32:52;9.50;99.90
60309;DHT22;50313;52.894;6.492;2024-02-21T10:35:32;9.50;99.90
60309;DHT22;50313;52.894;6.492;2024-02-21T10:37:59;9.60;99.90
60309;DHT22;50313;52.894;6.492;2024-02-21T10:40:29;9.60;99.90
60309;DHT22;50313;52.894;6.492;2024-02-21T10:43:01;9.70;99.90
60309;DHT22;50313;52.894;6.492;2024-02-21T10:45:34;9.70;99.90
60309;DHT22;50313;52.894;6.492;2024-02-21T10:48:14;9.70;99.90
60309;DHT22;50313;52.894;6.492;2024-02-21T10:51:08;9.80;99.90
60309;DHT22;50313;52.894;6.492;2024-02-21T10:54:08;9.80;99.90
60309;DHT22;50313;52.894;6.492;2024-02-21T10:56:32;9.80;99.90
60309;DHT22;50313;52.894;6.492;2024-02-21T10:59:07;9.80;99.90
60309;DHT22;50313;52.894;6.492;2024-02-21T11:01:34;9.70;99.90
60309;DHT22;50313;52.894;6.492;2024-02-21T11:04:05;9.80;99.90
60309;DHT22;50313;52.894;6.492;2024-02-21T11:06:32;9.70;99.90
60309;DHT22;50313;52.894;6.492;2024-02-21T11:09:06;9.80;99.90
60309;DHT22;50313;52.894;6.492;2024-02-21T11:11:39;9.70;99.90
60309;DHT22;50313;52.894;6.492;2024-02-21T11:14:18;9.70;99.90
60309;DHT22;50313;52.894;6.492;2024-02-21T11:16:44;9.70;99.90
60309;DHT22;50313;52.894;6.492;2024-02-21T11:19:22;9.70;99.90
60309;DHT22;50313;52.894;6.492;2024-02-21T11:21:48;9.70;99.90
60309;DHT22;50313;52.894;6.492;2024-02-21T11:24:25;9.70;99.90
60309;DHT22;50313;52.894;6.492;2024-02-21T11:26:51;9.70;99.90
60309;DHT22;50313;52.894;6.492;2024-02-21T11:29:24;9.70;99.90
60309;DHT22;50313;52.894;6.492;2024-02-21T11:31:50;9.70;99.90
60309;DHT22;50313;52.894;6.492;2024-02-21T11:34:20;9.60;99.90
60309;DHT22;50313;52.894;6.492;2024-02-21T11:36:52;9.70;99.90
60309;DHT22;50313;52.894;6.492;2024-02-21T11:39:25;9.70;99.90
60309;DHT22;50313;52.894;6.492;2024-02-21T11:42:03;9.60;99.90
60309;DHT22;50313;52.894;6.492;2024-02-21T11:44:40;9.70;99.90
60309;DHT22;50313;52.894;6.492;2024-02-21T11:47:08;9.70;99.90
60309;DHT22;50313;52.894;6.492;2024-02-21T11:49:38;9.70;99.90
60309;DHT22;50313;52.894;6.492;2024-02-21T11:52:07;9.70;99.90
60309;DHT22;50313;52.894;6.492;2024-02-21T11:54:34;9.60;99.90
60309;DHT22;50313;52.894;6.492;2024-02-21T11:57:00;9.60;99.90
60309;DHT22;50313;52.894;6.492;2024-02-21T11:59:26;9.70;99.90
60309;DHT22;50313;52.894;6.492;2024-02-21T12:01:55;9.70;99.90
60309;DHT22;50313;52.894;6.492;2024-02-21T12:04:22;9.70;99.90
60309;DHT22;50313;52.894;6.492;2024-02-21T12:06:52;9.70;99.90
60309;DHT22;50313;52.894;6.492;2024-02-21T12:09:18;9.70;99.90
60309;DHT22;50313;52.894;6.492;2024-02-21T12:11:45;9.70;99.90
60309;DHT22;50313;52.894;6.492;2024-02-21T12:14:16;9.80;99.90
60309;DHT22;50313;52.894;6.492;2024-02-21T12:16:42;9.80;99.90
60309;DHT22;50313;52.894;6.492;2024-02-21T12:19:13;9.80;99.90
60309;DHT22;50313;52.894;6.492;2024-02-21T12:21:39;9.90;99.90
60309;DHT22;50313;52.894;6.492;2024-02-21T12:26:39;9.90;99.90
60309;DHT22;50313;52.894;6.492;2024-02-21T12:29:04;10.00;99.90
60309;DHT22;50313;52.894;6.492;2024-02-21T12:31:30;10.00;99.90
60309;DHT22;50313;52.894;6.492;2024-02-21T12:33:57;10.00;99.90
60309;DHT22;50313;52.894;6.492;2024-02-21T12:36:22;9.90;99.90
60309;DHT22;50313;52.894;6.492;2024-02-21T12:38:49;9.90;99.90
60309;DHT22;50313;52.894;6.492;2024-02-21T12:41:15;9.90;99.90
60309;DHT22;50313;52.894;6.492;2024-02-21T12:43:41;9.90;99.90
60309;DHT22;50313;52.894;6.492;2024-02-21T12:46:07;9.80;99.90
60309;DHT22;50313;52.894;6.492;2024-02-21T12:48:33;9.80;99.90
60309;DHT22;50313;52.894;6.492;2024-02-21T12:50:59;9.80;99.90
60309;DHT22;50313;52.894;6.492;2024-02-21T12:53:25;9.70;99.90
60309;DHT22;50313;52.894;6.492;2024-02-21T12:55:51;9.70;99.90
60309;DHT22;50313;52.894;6.492;2024-02-21T12:58:17;9.70;99.90
60309;DHT22;50313;52.894;6.492;2024-02-21T13:00:42;9.80;99.90
60309;DHT22;50313;52.894;6.492;2024-02-21T13:03:09;9.80;99.90
60309;DHT22;50313;52.894;6.492;2024-02-21T13:05:37;9.80;99.90
60309;DHT22;50313;52.894;6.492;2024-02-21T13:08:08;9.90;99.90
60309;DHT22;50313;52.894;6.492;2024-02-21T13:10:34;9.90;99.90
60309;DHT22;50313;52.894;6.492;2024-02-21T13:13:01;9.90;99.90
60309;DHT22;50313;52.894;6.492;2024-02-21T13:15:27;9.90;99.90
60309;DHT22;50313;52.894;6.492;2024-02-21T13:17:55;10.00;99.90
60309;DHT22;50313;52.894;6.492;2024-02-21T13:20:21;10.00;99.90
60309;DHT22;50313;52.894;6.492;2024-02-21T13:22:47;9.90;99.90
60309;DHT22;50313;52.894;6.492;2024-02-21T13:25:12;10.00;99.90
60309;DHT22;50313;52.894;6.492;2024-02-21T13:27:45;9.90;99.90
60309;DHT22;50313;52.894;6.492;2024-02-21T13:30:12;10.00;99.90
60309;DHT22;50313;52.894;6.492;2024-02-21T13:32:38;10.00;99.90
60309;DHT22;50313;52.894;6.492;2024-02-21T13:35:04;10.00;99.90
60309;DHT22;50313;52.894;6.492;2024-02-21T13:37:31;10.10;99.90
60309;DHT22;50313;52.894;6.492;2024-02-21T13:39:57;10.10;99.90
60309;DHT22;50313;52.894;6.492;2024-02-21T13:42:22;10.00;99.90
60309;DHT22;50313;52.894;6.492;2024-02-21T13:44:49;10.00;99.90
60309;DHT22;50313;52.894;6.492;2024-02-21T13:47:15;10.00;99.90
60309;DHT22;50313;52.894;6.492;2024-02-21T13:49:41;10.00;99.90
60309;DHT22;50313;52.894;6.492;2024-02-21T13:52:07;10.00;99.90
60309;DHT22;50313;52.894;6.492;2024-02-21T13:54:32;9.90;99.90
60309;DHT22;50313;52.894;6.492;2024-02-21T13:56:58;9.90;99.90
60309;DHT22;50313;52.894;6.492;2024-02-21T13:59:24;9.80;99.90
60309;DHT22;50313;52.894;6.492;2024-02-21T14:01:51;9.80;99.90
60309;DHT22;50313;52.894;6.492;2024-02-21T14:04:17;9.80;99.90
60309;DHT22;50313;52.894;6.492;2024-02-21T14:06:43;9.80;99.90
60309;DHT22;50313;52.894;6.492;2024-02-21T14:09:09;9.80;99.90
60309;DHT22;50313;52.894;6.492;2024-02-21T14:11:35;9.70;99.90
60309;DHT22;50313;52.894;6.492;2024-02-21T14:14:03;9.70;99.90
60309;DHT22;50313;52.894;6.492;2024-02-21T14:16:30;9.60;99.90
60309;DHT22;50313;52.894;6.492;2024-02-21T14:18:55;9.60;99.90
60309;DHT22;50313;52.894;6.492;2024-02-21T14:21:21;9.60;99.90
60309;DHT22;50313;52.894;6.492;2024-02-21T14:23:47;9.60;99.90
60309;DHT22;50313;52.894;6.492;2024-02-21T14:26:13;9.60;99.90
60309;DHT22;50313;52.894;6.492;2024-02-21T14:28:40;9.60;99.90
60309;DHT22;50313;52.894;6.492;2024-02-21T14:31:06;9.60;99.90
60309;DHT22;50313;52.894;6.492;2024-02-21T14:33:35;9.60;99.90
60309;DHT22;50313;52.894;6.492;2024-02-21T14:36:01;9.60;99.90
60309;DHT22;50313;52.894;6.492;2024-02-21T14:38:28;9.70;99.90
60309;DHT22;50313;52.894;6.492;2024-02-21T14:40:54;9.60;99.90
60309;DHT22;50313;52.894;6.492;2024-02-21T14:43:20;9.70;99.90
60309;DHT22;50313;52.894;6.492;2024-02-21T14:45:49;9.70;99.90
60309;DHT22;50313;52.894;6.492;2024-02-21T14:48:15;9.70;99.90
60309;DHT22;50313;52.894;6.492;2024-02-21T14:50:41;9.60;99.90
60309;DHT22;50313;52.894;6.492;2024-02-21T14:53:09;9.60;99.90
60309;DHT22;50313;52.894;6.492;2024-02-21T14:55:35;9.60;99.90
60309;DHT22;50313;52.894;6.492;2024-02-21T14:58:01;9.50;99.90
60309;DHT22;50313;52.894;6.492;2024-02-21T15:00:27;9.60;99.90
60309;DHT22;50313;52.894;6.492;2024-02-21T15:02:59;9.60;99.90
60309;DHT22;50313;52.894;6.492;2024-02-21T15:05:25;9.50;99.90
60309;DHT22;50313;52.894;6.492;2024-02-21T15:07:52;9.50;99.90
60309;DHT22;50313;52.894;6.492;2024-02-21T15:10:18;9.50;99.90
60309;DHT22;50313;52.894;6.492;2024-02-21T15:12:46;9.50;99.90
60309;DHT22;50313;52.894;6.492;2024-02-21T15:15:13;9.50;99.90
60309;DHT22;50313;52.894;6.492;2024-02-21T15:17:39;9.50;99.90
60309;DHT22;50313;52.894;6.492;2024-02-21T15:20:05;9.60;99.90
60309;DHT22;50313;52.894;6.492;2024-02-21T15:22:35;9.60;99.90
60309;DHT22;50313;52.894;6.492;2024-02-21T15:25:01;9.60;99.90
60309;DHT22;50313;52.894;6.492;2024-02-21T15:27:27;9.60;99.90
60309;DHT22;50313;52.894;6.492;2024-02-21T15:29:56;9.60;99.90
60309;DHT22;50313;52.894;6.492;2024-02-21T15:32:23;9.60;99.90
60309;DHT22;50313;52.894;6.492;2024-02-21T15:34:49;9.60;99.90
60309;DHT22;50313;52.894;6.492;2024-02-21T15:37:14;9.60;99.90
60309;DHT22;50313;52.894;6.492;2024-02-21T15:39:44;9.60;99.90
60309;DHT22;50313;52.894;6.492;2024-02-21T15:42:10;9.60;99.90
60309;DHT22;50313;52.894;6.492;2024-02-21T15:44:35;9.60;99.90
60309;DHT22;50313;52.894;6.492;2024-02-21T15:47:01;9.60;99.90
60309;DHT22;50313;52.894;6.492;2024-02-21T15:49:27;9.60;99.90
60309;DHT22;50313;52.894;6.492;2024-02-21T15:51:53;9.60;99.90